sensor_id;sensor_type;location;lat;lon;timestamp;P1;durP1;ratioP1;P2;durP2;ratioP2
59390;SDS011;53405;57.012;40.984;2022-08-21T00:00:15;34.65;;;22.20;;
59390;SDS011;53405;57.012;40.984;2022-08-21T00:03:05;33.25;;;20.25;;
59390;SDS011;53405;57.012;40.984;2022-08-21T00:05:54;31.98;;;20.80;;
59390;SDS011;53405;57.012;40.984;2022-08-21T00:08:43;36.95;;;22.23;;
59390;SDS011;53405;57.012;40.984;2022-08-21T00:11:31;36.53;;;22.15;;
59390;SDS011;53405;57.012;40.984;2022-08-21T00:14:20;35.63;;;25.73;;
59390;SDS011;53405;57.012;40.984;2022-08-21T00:17:08;36.65;;;24.27;;
59390;SDS011;53405;57.012;40.984;2022-08-21T00:19:56;36.97;;;26.40;;
59390;SDS011;53405;57.012;40.984;2022-08-21T00:22:44;44.75;;;27.45;;
59390;SDS011;53405;57.012;40.984;2022-08-21T00:25:32;45.57;;;28.57;;
59390;SDS011;53405;57.012;40.984;2022-08-21T00:28:20;38.40;;;27.98;;
59390;SDS011;53405;57.012;40.984;2022-08-21T00:31:08;48.90;;;29.60;;
59390;SDS011;53405;57.012;40.984;2022-08-21T00:33:56;48.28;;;32.38;;
59390;SDS011;53405;57.012;40.984;2022-08-21T00:36:43;52.15;;;34.13;;
59390;SDS011;53405;57.012;40.984;2022-08-21T00:39:31;54.33;;;34.65;;
59390;SDS011;53405;57.012;40.984;2022-08-21T00:42:19;50.13;;;35.08;;
59390;SDS011;53405;57.012;40.984;2022-08-21T00:45:08;50.08;;;35.08;;
59390;SDS011;53405;57.012;40.984;2022-08-21T00:47:57;46.67;;;32.90;;
59390;SDS011;53405;57.012;40.984;2022-08-21T00:51:19;50.20;;;34.40;;
59390;SDS011;53405;57.012;40.984;2022-08-21T00:54:01;53.58;;;34.75;;
59390;SDS011;53405;57.012;40.984;2022-08-21T00:56:51;49.13;;;32.70;;
59390;SDS011;53405;57.012;40.984;2022-08-21T00:59:41;47.22;;;31.83;;
59390;SDS011;53405;57.012;40.984;2022-08-21T01:02:35;46.80;;;31.98;;
59390;SDS011;53405;57.012;40.984;2022-08-21T01:05:22;51.08;;;32.85;;
59390;SDS011;53405;57.012;40.984;2022-08-21T01:08:10;51.35;;;32.17;;
59390;SDS011;53405;57.012;40.984;2022-08-21T01:11:00;46.78;;;32.53;;
59390;SDS011;53405;57.012;40.984;2022-08-21T01:13:49;45.88;;;32.97;;
59390;SDS011;53405;57.012;40.984;2022-08-21T01:16:40;46.15;;;33.13;;
59390;SDS011;53405;57.012;40.984;2022-08-21T01:19:31;51.50;;;32.85;;
59390;SDS011;53405;57.012;40.984;2022-08-21T01:22:19;50.70;;;33.40;;
59390;SDS011;53405;57.012;40.984;2022-08-21T01:25:07;54.22;;;35.65;;
59390;SDS011;53405;57.012;40.984;2022-08-21T01:27:56;55.17;;;34.83;;
59390;SDS011;53405;57.012;40.984;2022-08-21T01:30:47;49.25;;;33.65;;
59390;SDS011;53405;57.012;40.984;2022-08-21T01:33:38;50.67;;;34.65;;
59390;SDS011;53405;57.012;40.984;2022-08-21T01:36:26;46.72;;;35.10;;
59390;SDS011;53405;57.012;40.984;2022-08-21T01:39:14;51.20;;;34.17;;
59390;SDS011;53405;57.012;40.984;2022-08-21T01:42:03;49.75;;;34.10;;
59390;SDS011;53405;57.012;40.984;2022-08-21T01:44:51;52.53;;;35.05;;
59390;SDS011;53405;57.012;40.984;2022-08-21T01:47:39;52.70;;;35.10;;
59390;SDS011;53405;57.012;40.984;2022-08-21T01:50:28;49.92;;;35.13;;
59390;SDS011;53405;57.012;40.984;2022-08-21T01:53:16;48.70;;;33.57;;
59390;SDS011;53405;57.012;40.984;2022-08-21T01:56:05;55.63;;;35.78;;
59390;SDS011;53405;57.012;40.984;2022-08-21T01:58:54;48.90;;;33.40;;
59390;SDS011;53405;57.012;40.984;2022-08-21T02:01:42;51.60;;;35.15;;
59390;SDS011;53405;57.012;40.984;2022-08-21T02:04:29;50.25;;;34.95;;
59390;SDS011;53405;57.012;40.984;2022-08-21T02:07:17;51.45;;;34.97;;
59390;SDS011;53405;57.012;40.984;2022-08-21T02:10:06;52.30;;;34.60;;
59390;SDS011;53405;57.012;40.984;2022-08-21T02:12:57;50.83;;;33.50;;
59390;SDS011;53405;57.012;40.984;2022-08-21T02:15:46;54.85;;;34.13;;
59390;SDS011;53405;57.012;40.984;2022-08-21T02:18:34;49.70;;;33.10;;
59390;SDS011;53405;57.012;40.984;2022-08-21T02:21:22;51.80;;;33.55;;
59390;SDS011;53405;57.012;40.984;2022-08-21T02:24:10;49.72;;;33.35;;
59390;SDS011;53405;57.012;40.984;2022-08-21T02:26:58;47.38;;;33.35;;
59390;SDS011;53405;57.012;40.984;2022-08-21T02:29:46;49.17;;;32.50;;
59390;SDS011;53405;57.012;40.984;2022-08-21T02:32:33;46.25;;;32.08;;
59390;SDS011;53405;57.012;40.984;2022-08-21T02:35:21;45.17;;;31.33;;
59390;SDS011;53405;57.012;40.984;2022-08-21T02:38:11;49.30;;;32.50;;
59390;SDS011;53405;57.012;40.984;2022-08-21T02:41:00;46.70;;;30.50;;
59390;SDS011;53405;57.012;40.984;2022-08-21T02:43:48;48.38;;;31.90;;
59390;SDS011;53405;57.012;40.984;2022-08-21T02:46:36;47.72;;;31.25;;
59390;SDS011;53405;57.012;40.984;2022-08-21T02:49:24;43.20;;;29.90;;
59390;SDS011;53405;57.012;40.984;2022-08-21T02:52:11;46.45;;;30.95;;
59390;SDS011;53405;57.012;40.984;2022-08-21T02:54:59;47.17;;;30.35;;
59390;SDS011;53405;57.012;40.984;2022-08-21T02:57:48;49.65;;;30.88;;
59390;SDS011;53405;57.012;40.984;2022-08-21T03:00:36;43.13;;;29.95;;
59390;SDS011;53405;57.012;40.984;2022-08-21T03:03:24;49.88;;;31.05;;
59390;SDS011;53405;57.012;40.984;2022-08-21T03:06:14;45.20;;;29.33;;
59390;SDS011;53405;57.012;40.984;2022-08-21T03:09:02;49.45;;;31.73;;
59390;SDS011;53405;57.012;40.984;2022-08-21T03:11:50;49.58;;;30.38;;
59390;SDS011;53405;57.012;40.984;2022-08-21T03:14:38;44.85;;;28.98;;
59390;SDS011;53405;57.012;40.984;2022-08-21T03:17:25;49.08;;;29.08;;
59390;SDS011;53405;57.012;40.984;2022-08-21T03:20:15;46.00;;;29.13;;
59390;SDS011;53405;57.012;40.984;2022-08-21T03:23:05;46.42;;;29.50;;
59390;SDS011;53405;57.012;40.984;2022-08-21T03:25:54;41.90;;;28.48;;
59390;SDS011;53405;57.012;40.984;2022-08-21T03:28:41;43.67;;;28.25;;
59390;SDS011;53405;57.012;40.984;2022-08-21T03:31:30;44.08;;;28.10;;
59390;SDS011;53405;57.012;40.984;2022-08-21T03:34:18;41.35;;;27.42;;
59390;SDS011;53405;57.012;40.984;2022-08-21T03:37:06;38.63;;;27.80;;
59390;SDS011;53405;57.012;40.984;2022-08-21T03:39:54;40.95;;;26.05;;
59390;SDS011;53405;57.012;40.984;2022-08-21T03:42:42;41.63;;;26.73;;
59390;SDS011;53405;57.012;40.984;2022-08-21T03:45:30;41.38;;;26.10;;
59390;SDS011;53405;57.012;40.984;2022-08-21T03:48:19;36.90;;;24.73;;
59390;SDS011;53405;57.012;40.984;2022-08-21T03:51:08;40.80;;;25.58;;
59390;SDS011;53405;57.012;40.984;2022-08-21T03:53:58;38.53;;;24.65;;
59390;SDS011;53405;57.012;40.984;2022-08-21T03:56:45;44.90;;;26.00;;
59390;SDS011;53405;57.012;40.984;2022-08-21T03:59:33;39.35;;;25.02;;
59390;SDS011;53405;57.012;40.984;2022-08-21T04:02:21;38.22;;;24.65;;
59390;SDS011;53405;57.012;40.984;2022-08-21T04:05:10;41.10;;;24.50;;
59390;SDS011;53405;57.012;40.984;2022-08-21T04:10:48;35.13;;;23.88;;
59390;SDS011;53405;57.012;40.984;2022-08-21T04:13:38;39.65;;;24.38;;
59390;SDS011;53405;57.012;40.984;2022-08-21T04:16:27;35.95;;;22.85;;
59390;SDS011;53405;57.012;40.984;2022-08-21T04:19:14;37.38;;;23.90;;
59390;SDS011;53405;57.012;40.984;2022-08-21T04:22:02;37.75;;;23.15;;
59390;SDS011;53405;57.012;40.984;2022-08-21T04:24:50;31.42;;;22.60;;
59390;SDS011;53405;57.012;40.984;2022-08-21T04:27:38;37.75;;;23.27;;
59390;SDS011;53405;57.012;40.984;2022-08-21T04:30:27;35.08;;;21.55;;
59390;SDS011;53405;57.012;40.984;2022-08-21T04:33:14;39.20;;;21.92;;
59390;SDS011;53405;57.012;40.984;2022-08-21T04:36:02;32.10;;;20.52;;
59390;SDS011;53405;57.012;40.984;2022-08-21T04:38:50;35.15;;;20.60;;
59390;SDS011;53405;57.012;40.984;2022-08-21T04:41:38;39.90;;;20.60;;
59390;SDS011;53405;57.012;40.984;2022-08-21T04:44:26;30.33;;;19.20;;
59390;SDS011;53405;57.012;40.984;2022-08-21T04:47:13;31.15;;;20.08;;
59390;SDS011;53405;57.012;40.984;2022-08-21T04:50:01;31.20;;;19.17;;
59390;SDS011;53405;57.012;40.984;2022-08-21T04:52:49;28.90;;;19.10;;
59390;SDS011;53405;57.012;40.984;2022-08-21T04:55:36;30.35;;;18.15;;
59390;SDS011;53405;57.012;40.984;2022-08-21T04:58:25;30.13;;;18.33;;
59390;SDS011;53405;57.012;40.984;2022-08-21T05:01:15;27.50;;;17.70;;
59390;SDS011;53405;57.012;40.984;2022-08-21T05:04:08;28.50;;;18.90;;
59390;SDS011;53405;57.012;40.984;2022-08-21T05:07:00;31.75;;;18.17;;
59390;SDS011;53405;57.012;40.984;2022-08-21T05:09:50;30.92;;;18.65;;
59390;SDS011;53405;57.012;40.984;2022-08-21T05:12:38;29.45;;;17.73;;
59390;SDS011;53405;57.012;40.984;2022-08-21T05:15:27;31.85;;;16.95;;
59390;SDS011;53405;57.012;40.984;2022-08-21T05:18:15;27.98;;;17.15;;
59390;SDS011;53405;57.012;40.984;2022-08-21T05:21:03;27.00;;;16.45;;
59390;SDS011;53405;57.012;40.984;2022-08-21T05:23:51;27.00;;;16.70;;
59390;SDS011;53405;57.012;40.984;2022-08-21T05:26:39;28.05;;;16.75;;
59390;SDS011;53405;57.012;40.984;2022-08-21T05:29:27;25.67;;;15.23;;
59390;SDS011;53405;57.012;40.984;2022-08-21T05:32:18;27.17;;;16.23;;
59390;SDS011;53405;57.012;40.984;2022-08-21T05:35:06;28.90;;;15.88;;
59390;SDS011;53405;57.012;40.984;2022-08-21T05:37:55;37.45;;;16.15;;
59390;SDS011;53405;57.012;40.984;2022-08-21T05:40:43;21.77;;;13.23;;
59390;SDS011;53405;57.012;40.984;2022-08-21T05:46:23;22.38;;;13.93;;
59390;SDS011;53405;57.012;40.984;2022-08-21T05:49:11;28.52;;;16.45;;
59390;SDS011;53405;57.012;40.984;2022-08-21T05:51:59;20.50;;;12.95;;
59390;SDS011;53405;57.012;40.984;2022-08-21T05:54:46;24.27;;;14.15;;
59390;SDS011;53405;57.012;40.984;2022-08-21T05:57:34;23.92;;;14.15;;
59390;SDS011;53405;57.012;40.984;2022-08-21T06:00:21;24.48;;;13.95;;
59390;SDS011;53405;57.012;40.984;2022-08-21T06:03:11;23.77;;;13.13;;
59390;SDS011;53405;57.012;40.984;2022-08-21T06:06:00;23.58;;;12.77;;
59390;SDS011;53405;57.012;40.984;2022-08-21T06:08:48;24.23;;;12.93;;
59390;SDS011;53405;57.012;40.984;2022-08-21T06:11:36;29.67;;;14.60;;
59390;SDS011;53405;57.012;40.984;2022-08-21T06:14:24;23.70;;;12.25;;
59390;SDS011;53405;57.012;40.984;2022-08-21T06:17:11;20.95;;;12.55;;
59390;SDS011;53405;57.012;40.984;2022-08-21T06:20:00;22.33;;;12.52;;
59390;SDS011;53405;57.012;40.984;2022-08-21T06:22:48;22.67;;;11.90;;
59390;SDS011;53405;57.012;40.984;2022-08-21T06:25:36;21.00;;;12.75;;
59390;SDS011;53405;57.012;40.984;2022-08-21T06:28:24;20.08;;;13.05;;
59390;SDS011;53405;57.012;40.984;2022-08-21T06:31:17;19.83;;;11.10;;
59390;SDS011;53405;57.012;40.984;2022-08-21T06:34:06;22.30;;;11.57;;
59390;SDS011;53405;57.012;40.984;2022-08-21T06:36:53;18.73;;;10.82;;
59390;SDS011;53405;57.012;40.984;2022-08-21T06:39:41;20.60;;;10.98;;
59390;SDS011;53405;57.012;40.984;2022-08-21T06:42:30;24.52;;;11.77;;
59390;SDS011;53405;57.012;40.984;2022-08-21T06:45:18;24.35;;;11.32;;
59390;SDS011;53405;57.012;40.984;2022-08-21T06:48:07;21.45;;;11.43;;
59390;SDS011;53405;57.012;40.984;2022-08-21T06:50:54;16.60;;;10.05;;
59390;SDS011;53405;57.012;40.984;2022-08-21T06:53:43;22.90;;;11.57;;
59390;SDS011;53405;57.012;40.984;2022-08-21T06:56:30;17.65;;;10.23;;
59390;SDS011;53405;57.012;40.984;2022-08-21T06:59:20;19.85;;;10.20;;
59390;SDS011;53405;57.012;40.984;2022-08-21T07:02:07;19.60;;;9.70;;
59390;SDS011;53405;57.012;40.984;2022-08-21T07:04:55;25.80;;;9.02;;
59390;SDS011;53405;57.012;40.984;2022-08-21T07:07:42;21.65;;;8.80;;
59390;SDS011;53405;57.012;40.984;2022-08-21T07:10:31;21.65;;;8.85;;
59390;SDS011;53405;57.012;40.984;2022-08-21T07:13:18;17.23;;;9.55;;
59390;SDS011;53405;57.012;40.984;2022-08-21T07:16:06;17.48;;;9.55;;
59390;SDS011;53405;57.012;40.984;2022-08-21T07:18:53;22.30;;;8.90;;
59390;SDS011;53405;57.012;40.984;2022-08-21T07:21:41;16.58;;;8.57;;
59390;SDS011;53405;57.012;40.984;2022-08-21T07:24:29;16.75;;;8.68;;
59390;SDS011;53405;57.012;40.984;2022-08-21T07:27:16;17.02;;;9.45;;
59390;SDS011;53405;57.012;40.984;2022-08-21T07:30:04;15.13;;;8.07;;
59390;SDS011;53405;57.012;40.984;2022-08-21T07:32:52;13.43;;;7.43;;
59390;SDS011;53405;57.012;40.984;2022-08-21T07:35:40;17.90;;;8.37;;
59390;SDS011;53405;57.012;40.984;2022-08-21T07:38:28;13.80;;;6.85;;
59390;SDS011;53405;57.012;40.984;2022-08-21T07:41:17;16.05;;;7.35;;
59390;SDS011;53405;57.012;40.984;2022-08-21T07:44:12;16.38;;;7.95;;
59390;SDS011;53405;57.012;40.984;2022-08-21T07:47:00;14.90;;;6.47;;
59390;SDS011;53405;57.012;40.984;2022-08-21T07:49:48;15.27;;;6.90;;
59390;SDS011;53405;57.012;40.984;2022-08-21T07:52:35;13.18;;;6.10;;
59390;SDS011;53405;57.012;40.984;2022-08-21T07:55:23;14.40;;;6.45;;
59390;SDS011;53405;57.012;40.984;2022-08-21T07:58:11;13.68;;;6.15;;
59390;SDS011;53405;57.012;40.984;2022-08-21T08:00:59;17.43;;;6.90;;
59390;SDS011;53405;57.012;40.984;2022-08-21T08:03:47;15.60;;;6.10;;
59390;SDS011;53405;57.012;40.984;2022-08-21T08:06:35;14.27;;;7.07;;
59390;SDS011;53405;57.012;40.984;2022-08-21T08:12:11;9.85;;;4.50;;
59390;SDS011;53405;57.012;40.984;2022-08-21T08:14:59;16.02;;;4.75;;
59390;SDS011;53405;57.012;40.984;2022-08-21T08:17:49;13.45;;;4.40;;
59390;SDS011;53405;57.012;40.984;2022-08-21T08:20:37;12.80;;;4.70;;
59390;SDS011;53405;57.012;40.984;2022-08-21T08:23:25;12.30;;;4.65;;
59390;SDS011;53405;57.012;40.984;2022-08-21T08:26:14;11.80;;;4.78;;
59390;SDS011;53405;57.012;40.984;2022-08-21T08:29:02;11.32;;;4.43;;
59390;SDS011;53405;57.012;40.984;2022-08-21T08:31:50;14.07;;;5.30;;
59390;SDS011;53405;57.012;40.984;2022-08-21T08:34:39;14.88;;;5.50;;
59390;SDS011;53405;57.012;40.984;2022-08-21T08:37:27;12.57;;;4.22;;
59390;SDS011;53405;57.012;40.984;2022-08-21T08:40:20;23.27;;;4.87;;
59390;SDS011;53405;57.012;40.984;2022-08-21T08:43:20;12.43;;;5.18;;
59390;SDS011;53405;57.012;40.984;2022-08-21T08:46:13;15.00;;;5.03;;
59390;SDS011;53405;57.012;40.984;2022-08-21T08:49:08;9.32;;;4.53;;
59390;SDS011;53405;57.012;40.984;2022-08-21T08:55:08;11.55;;;4.53;;
59390;SDS011;53405;57.012;40.984;2022-08-21T08:57:59;13.43;;;5.30;;
59390;SDS011;53405;57.012;40.984;2022-08-21T09:00:50;10.25;;;4.32;;
59390;SDS011;53405;57.012;40.984;2022-08-21T09:03:39;12.65;;;4.05;;
59390;SDS011;53405;57.012;40.984;2022-08-21T09:06:31;11.05;;;4.03;;
59390;SDS011;53405;57.012;40.984;2022-08-21T09:19:08;11.57;;;3.60;;
59390;SDS011;53405;57.012;40.984;2022-08-21T09:22:03;11.25;;;3.28;;
59390;SDS011;53405;57.012;40.984;2022-08-21T09:25:22;8.77;;;3.38;;
59390;SDS011;53405;57.012;40.984;2022-08-21T09:28:11;8.13;;;3.30;;
59390;SDS011;53405;57.012;40.984;2022-08-21T09:31:03;8.90;;;3.40;;
59390;SDS011;53405;57.012;40.984;2022-08-21T09:34:04;9.63;;;3.72;;
59390;SDS011;53405;57.012;40.984;2022-08-21T09:36:56;9.02;;;2.90;;
59390;SDS011;53405;57.012;40.984;2022-08-21T09:39:45;7.72;;;2.78;;
59390;SDS011;53405;57.012;40.984;2022-08-21T09:42:34;11.70;;;3.25;;
59390;SDS011;53405;57.012;40.984;2022-08-21T09:45:21;8.95;;;3.28;;
59390;SDS011;53405;57.012;40.984;2022-08-21T09:48:19;7.93;;;2.80;;
59390;SDS011;53405;57.012;40.984;2022-08-21T09:51:10;8.93;;;2.70;;
59390;SDS011;53405;57.012;40.984;2022-08-21T09:56:55;9.77;;;2.88;;
59390;SDS011;53405;57.012;40.984;2022-08-21T10:00:15;9.60;;;2.55;;
59390;SDS011;53405;57.012;40.984;2022-08-21T10:03:18;9.25;;;3.13;;
59390;SDS011;53405;57.012;40.984;2022-08-21T10:06:08;5.80;;;2.38;;
59390;SDS011;53405;57.012;40.984;2022-08-21T10:09:11;5.28;;;2.25;;
59390;SDS011;53405;57.012;40.984;2022-08-21T10:24:13;7.40;;;2.10;;
59390;SDS011;53405;57.012;40.984;2022-08-21T10:27:20;5.85;;;2.20;;
59390;SDS011;53405;57.012;40.984;2022-08-21T10:30:30;9.52;;;3.75;;
59390;SDS011;53405;57.012;40.984;2022-08-21T10:33:24;6.53;;;2.38;;
59390;SDS011;53405;57.012;40.984;2022-08-21T10:36:39;7.72;;;2.65;;
59390;SDS011;53405;57.012;40.984;2022-08-21T10:52:18;6.22;;;2.40;;
59390;SDS011;53405;57.012;40.984;2022-08-21T10:58:12;6.03;;;2.17;;
59390;SDS011;53405;57.012;40.984;2022-08-21T11:01:10;8.90;;;2.80;;
59390;SDS011;53405;57.012;40.984;2022-08-21T11:04:12;5.05;;;2.42;;
59390;SDS011;53405;57.012;40.984;2022-08-21T11:07:18;6.10;;;2.45;;
59390;SDS011;53405;57.012;40.984;2022-08-21T11:10:14;7.78;;;2.50;;
59390;SDS011;53405;57.012;40.984;2022-08-21T11:13:07;10.95;;;3.03;;
59390;SDS011;53405;57.012;40.984;2022-08-21T11:19:00;6.97;;;2.47;;
59390;SDS011;53405;57.012;40.984;2022-08-21T11:25:06;5.68;;;2.35;;
59390;SDS011;53405;57.012;40.984;2022-08-21T11:28:11;6.20;;;2.40;;
59390;SDS011;53405;57.012;40.984;2022-08-21T11:34:12;8.00;;;2.17;;
59390;SDS011;53405;57.012;40.984;2022-08-21T11:37:21;9.50;;;2.70;;
59390;SDS011;53405;57.012;40.984;2022-08-21T11:46:52;6.35;;;2.40;;
59390;SDS011;53405;57.012;40.984;2022-08-21T11:52:43;7.95;;;2.25;;
59390;SDS011;53405;57.012;40.984;2022-08-21T11:55:40;7.97;;;2.38;;
59390;SDS011;53405;57.012;40.984;2022-08-21T11:58:34;5.35;;;2.10;;
59390;SDS011;53405;57.012;40.984;2022-08-21T12:01:28;6.05;;;2.22;;
59390;SDS011;53405;57.012;40.984;2022-08-21T12:07:33;8.52;;;2.17;;
59390;SDS011;53405;57.012;40.984;2022-08-21T12:10:31;7.67;;;2.60;;
59390;SDS011;53405;57.012;40.984;2022-08-21T12:13:23;8.73;;;2.35;;
59390;SDS011;53405;57.012;40.984;2022-08-21T12:16:27;6.25;;;2.30;;
59390;SDS011;53405;57.012;40.984;2022-08-21T12:19:32;7.72;;;2.60;;
59390;SDS011;53405;57.012;40.984;2022-08-21T12:22:21;5.82;;;2.28;;
59390;SDS011;53405;57.012;40.984;2022-08-21T12:25:11;5.80;;;2.05;;
59390;SDS011;53405;57.012;40.984;2022-08-21T12:30:57;7.75;;;2.10;;
59390;SDS011;53405;57.012;40.984;2022-08-21T12:33:49;5.05;;;1.85;;
59390;SDS011;53405;57.012;40.984;2022-08-21T12:36:45;5.72;;;1.90;;
59390;SDS011;53405;57.012;40.984;2022-08-21T12:39:37;5.55;;;2.15;;
59390;SDS011;53405;57.012;40.984;2022-08-21T12:45:33;8.07;;;1.88;;
59390;SDS011;53405;57.012;40.984;2022-08-21T12:54:39;4.53;;;1.77;;
59390;SDS011;53405;57.012;40.984;2022-08-21T12:57:29;5.85;;;2.13;;
59390;SDS011;53405;57.012;40.984;2022-08-21T13:00:20;4.68;;;1.70;;
59390;SDS011;53405;57.012;40.984;2022-08-21T13:03:09;7.18;;;2.20;;
59390;SDS011;53405;57.012;40.984;2022-08-21T13:06:02;5.55;;;2.28;;
59390;SDS011;53405;57.012;40.984;2022-08-21T13:08:53;4.88;;;2.10;;
59390;SDS011;53405;57.012;40.984;2022-08-21T13:11:45;9.75;;;2.35;;
59390;SDS011;53405;57.012;40.984;2022-08-21T13:14:36;6.60;;;2.13;;
59390;SDS011;53405;57.012;40.984;2022-08-21T13:17:30;5.10;;;1.77;;
59390;SDS011;53405;57.012;40.984;2022-08-21T13:20:23;12.50;;;2.95;;
59390;SDS011;53405;57.012;40.984;2022-08-21T13:23:24;7.57;;;1.92;;
59390;SDS011;53405;57.012;40.984;2022-08-21T13:26:19;9.20;;;2.20;;
59390;SDS011;53405;57.012;40.984;2022-08-21T13:29:12;6.93;;;2.25;;
59390;SDS011;53405;57.012;40.984;2022-08-21T13:32:02;5.72;;;1.70;;
59390;SDS011;53405;57.012;40.984;2022-08-21T13:34:53;7.47;;;2.00;;
59390;SDS011;53405;57.012;40.984;2022-08-21T13:37:42;6.55;;;2.10;;
59390;SDS011;53405;57.012;40.984;2022-08-21T13:40:49;10.80;;;2.58;;
59390;SDS011;53405;57.012;40.984;2022-08-21T13:43:43;7.57;;;2.13;;
59390;SDS011;53405;57.012;40.984;2022-08-21T13:46:34;10.13;;;2.30;;
59390;SDS011;53405;57.012;40.984;2022-08-21T13:49:26;9.82;;;2.33;;
59390;SDS011;53405;57.012;40.984;2022-08-21T13:52:23;6.32;;;1.92;;
59390;SDS011;53405;57.012;40.984;2022-08-21T13:55:15;9.23;;;2.08;;
59390;SDS011;53405;57.012;40.984;2022-08-21T13:58:03;10.88;;;2.20;;
59390;SDS011;53405;57.012;40.984;2022-08-21T14:00:52;5.53;;;2.10;;
59390;SDS011;53405;57.012;40.984;2022-08-21T14:03:42;7.05;;;3.05;;
59390;SDS011;53405;57.012;40.984;2022-08-21T14:06:36;15.48;;;2.40;;
59390;SDS011;53405;57.012;40.984;2022-08-21T14:12:29;8.07;;;2.50;;
59390;SDS011;53405;57.012;40.984;2022-08-21T14:15:26;4.47;;;1.90;;
59390;SDS011;53405;57.012;40.984;2022-08-21T14:18:17;7.10;;;2.47;;
59390;SDS011;53405;57.012;40.984;2022-08-21T14:21:08;5.22;;;1.80;;
59390;SDS011;53405;57.012;40.984;2022-08-21T14:24:02;5.63;;;2.45;;
59390;SDS011;53405;57.012;40.984;2022-08-21T14:27:08;6.40;;;2.05;;
59390;SDS011;53405;57.012;40.984;2022-08-21T14:30:00;5.63;;;2.73;;
59390;SDS011;53405;57.012;40.984;2022-08-21T14:32:55;6.25;;;2.17;;
59390;SDS011;53405;57.012;40.984;2022-08-21T14:38:32;5.18;;;2.22;;
59390;SDS011;53405;57.012;40.984;2022-08-21T14:41:24;5.47;;;2.05;;
59390;SDS011;53405;57.012;40.984;2022-08-21T14:44:15;8.05;;;3.03;;
59390;SDS011;53405;57.012;40.984;2022-08-21T14:47:04;11.48;;;2.75;;
59390;SDS011;53405;57.012;40.984;2022-08-21T14:49:52;9.03;;;3.37;;
59390;SDS011;53405;57.012;40.984;2022-08-21T14:52:41;9.27;;;2.53;;
59390;SDS011;53405;57.012;40.984;2022-08-21T14:55:30;8.65;;;2.70;;
59390;SDS011;53405;57.012;40.984;2022-08-21T15:01:31;6.13;;;2.28;;
59390;SDS011;53405;57.012;40.984;2022-08-21T15:04:31;8.10;;;3.38;;
59390;SDS011;53405;57.012;40.984;2022-08-21T15:07:20;8.20;;;2.65;;
59390;SDS011;53405;57.012;40.984;2022-08-21T15:10:08;7.43;;;3.40;;
59390;SDS011;53405;57.012;40.984;2022-08-21T15:12:56;9.65;;;3.10;;
59390;SDS011;53405;57.012;40.984;2022-08-21T15:15:44;14.13;;;3.60;;
59390;SDS011;53405;57.012;40.984;2022-08-21T15:18:32;9.95;;;2.90;;
59390;SDS011;53405;57.012;40.984;2022-08-21T15:21:20;13.52;;;3.90;;
59390;SDS011;53405;57.012;40.984;2022-08-21T15:24:08;12.43;;;3.22;;
59390;SDS011;53405;57.012;40.984;2022-08-21T15:26:56;8.38;;;3.00;;
59390;SDS011;53405;57.012;40.984;2022-08-21T15:29:47;15.68;;;3.25;;
59390;SDS011;53405;57.012;40.984;2022-08-21T15:32:35;10.05;;;2.90;;
59390;SDS011;53405;57.012;40.984;2022-08-21T15:35:22;16.48;;;3.70;;
59390;SDS011;53405;57.012;40.984;2022-08-21T15:38:10;16.33;;;3.33;;
59390;SDS011;53405;57.012;40.984;2022-08-21T15:40:58;14.18;;;3.45;;
59390;SDS011;53405;57.012;40.984;2022-08-21T15:43:46;9.88;;;3.30;;
59390;SDS011;53405;57.012;40.984;2022-08-21T15:46:37;10.15;;;2.75;;
59390;SDS011;53405;57.012;40.984;2022-08-21T15:49:25;6.72;;;3.40;;
59390;SDS011;53405;57.012;40.984;2022-08-21T15:52:14;12.97;;;3.23;;
59390;SDS011;53405;57.012;40.984;2022-08-21T15:55:06;16.58;;;3.42;;
59390;SDS011;53405;57.012;40.984;2022-08-21T15:57:54;9.57;;;3.40;;
59390;SDS011;53405;57.012;40.984;2022-08-21T16:00:43;12.45;;;3.15;;
59390;SDS011;53405;57.012;40.984;2022-08-21T16:03:33;8.02;;;3.10;;
59390;SDS011;53405;57.012;40.984;2022-08-21T16:06:21;9.93;;;3.70;;
59390;SDS011;53405;57.012;40.984;2022-08-21T16:09:08;15.07;;;3.88;;
59390;SDS011;53405;57.012;40.984;2022-08-21T16:11:56;15.77;;;4.50;;
59390;SDS011;53405;57.012;40.984;2022-08-21T16:14:46;11.15;;;4.13;;
59390;SDS011;53405;57.012;40.984;2022-08-21T16:17:34;23.13;;;5.40;;
59390;SDS011;53405;57.012;40.984;2022-08-21T16:20:25;17.85;;;4.90;;
59390;SDS011;53405;57.012;40.984;2022-08-21T16:23:15;25.02;;;6.28;;
59390;SDS011;53405;57.012;40.984;2022-08-21T16:26:04;22.88;;;5.88;;
59390;SDS011;53405;57.012;40.984;2022-08-21T16:28:53;20.42;;;6.72;;
59390;SDS011;53405;57.012;40.984;2022-08-21T16:31:44;17.95;;;7.32;;
59390;SDS011;53405;57.012;40.984;2022-08-21T16:34:31;18.63;;;6.60;;
59390;SDS011;53405;57.012;40.984;2022-08-21T16:37:20;29.48;;;7.72;;
59390;SDS011;53405;57.012;40.984;2022-08-21T16:40:08;18.38;;;7.40;;
59390;SDS011;53405;57.012;40.984;2022-08-21T16:42:57;18.42;;;6.20;;
59390;SDS011;53405;57.012;40.984;2022-08-21T16:45:44;17.65;;;6.10;;
59390;SDS011;53405;57.012;40.984;2022-08-21T16:48:32;20.43;;;6.77;;
59390;SDS011;53405;57.012;40.984;2022-08-21T16:54:09;20.48;;;9.00;;
59390;SDS011;53405;57.012;40.984;2022-08-21T16:56:58;22.77;;;9.55;;
59390;SDS011;53405;57.012;40.984;2022-08-21T16:59:46;19.60;;;8.75;;
59390;SDS011;53405;57.012;40.984;2022-08-21T17:02:36;37.15;;;8.90;;
59390;SDS011;53405;57.012;40.984;2022-08-21T17:05:25;29.17;;;8.57;;
59390;SDS011;53405;57.012;40.984;2022-08-21T17:08:13;26.27;;;8.63;;
59390;SDS011;53405;57.012;40.984;2022-08-21T17:11:01;21.52;;;8.10;;
59390;SDS011;53405;57.012;40.984;2022-08-21T17:13:49;21.85;;;9.75;;
59390;SDS011;53405;57.012;40.984;2022-08-21T17:16:37;21.07;;;9.17;;
59390;SDS011;53405;57.012;40.984;2022-08-21T17:19:26;18.67;;;7.82;;
59390;SDS011;53405;57.012;40.984;2022-08-21T17:22:14;24.85;;;9.27;;
59390;SDS011;53405;57.012;40.984;2022-08-21T17:25:02;21.30;;;8.55;;
59390;SDS011;53405;57.012;40.984;2022-08-21T17:27:50;19.73;;;8.60;;
59390;SDS011;53405;57.012;40.984;2022-08-21T17:33:33;17.58;;;9.40;;
59390;SDS011;53405;57.012;40.984;2022-08-21T17:36:25;20.98;;;9.38;;
59390;SDS011;53405;57.012;40.984;2022-08-21T17:39:14;23.50;;;10.23;;
59390;SDS011;53405;57.012;40.984;2022-08-21T17:42:04;23.95;;;10.10;;
59390;SDS011;53405;57.012;40.984;2022-08-21T17:44:55;27.45;;;10.85;;
59390;SDS011;53405;57.012;40.984;2022-08-21T17:47:43;28.37;;;13.13;;
59390;SDS011;53405;57.012;40.984;2022-08-21T17:50:31;30.17;;;12.00;;
59390;SDS011;53405;57.012;40.984;2022-08-21T17:53:19;25.05;;;11.43;;
59390;SDS011;53405;57.012;40.984;2022-08-21T17:56:08;21.27;;;11.05;;
59390;SDS011;53405;57.012;40.984;2022-08-21T17:58:56;28.95;;;10.10;;
59390;SDS011;53405;57.012;40.984;2022-08-21T18:01:44;24.13;;;9.65;;
59390;SDS011;53405;57.012;40.984;2022-08-21T18:04:34;20.73;;;9.60;;
59390;SDS011;53405;57.012;40.984;2022-08-21T18:07:21;19.42;;;8.55;;
59390;SDS011;53405;57.012;40.984;2022-08-21T18:10:10;17.17;;;8.68;;
59390;SDS011;53405;57.012;40.984;2022-08-21T18:12:59;20.42;;;9.77;;